Time;durP1;ratioP1;P1;durP2;ratioP2;P2;SDS_P1;SDS_P2;PMS_P1;PMS_P2;Temp;Humidity;BMP_temperature;BMP_pressure;BME280_temperature;BME280_humidity;BME280_pressure;Samples;Min_cycle;Max_cycle;Signal;HPM_P1;HPM_P2
2023/06/17 00:00:36;;;;;;;7.88;6.57;;;;;;;16.46;57.15;100788.97;6026007;23;20039;-70
2023/06/17 00:03:02;;;;;;;7.40;6.70;;;;;;;16.32;57.20;100764.34;6052571;23;20030;-70
2023/06/17 00:05:31;;;;;;;6.95;6.40;;;;;;;16.35;57.86;100771.22;6025249;23;20023;-70
2023/06/17 00:07:58;;;;;;;6.25;5.85;;;;;;;16.30;58.17;100782.16;6053035;23;20049;-70
2023/06/17 00:10:24;;;;;;;6.47;6.07;;;;;;;16.28;58.57;100785.88;6055324;23;20023;-70
2023/06/17 00:12:50;;;;;;;6.78;6.28;;;;;;;16.05;58.35;100754.00;6031044;23;20022;-69
2023/06/17 00:15:17;;;;;;;7.18;6.30;;;;;;;16.15;59.17;100775.34;6061247;23;20026;-69
2023/06/17 00:17:45;;;;;;;7.38;6.78;;;;;;;15.89;59.06;100753.47;6030251;23;20018;-69
2023/06/17 00:20:13;;;;;;;6.57;6.07;;;;;;;15.80;59.30;100739.13;6057152;23;20067;-70
2023/06/17 00:22:40;;;;;;;7.68;7.03;;;;;;;15.97;59.98;100782.84;6030390;23;20109;-69
2023/06/17 00:25:07;;;;;;;6.45;6.03;;;;;;;15.92;60.02;100772.63;6059811;23;20562;-69
2023/06/17 00:27:34;;;;;;;6.95;6.40;;;;;;;15.89;60.28;100775.47;6033550;23;20086;-69
2023/06/17 00:30:00;;;;;;;6.97;6.38;;;;;;;15.81;60.44;100761.13;6061031;23;20022;-69
2023/06/17 00:32:28;;;;;;;6.82;6.32;;;;;;;15.80;61.06;100770.88;6027184;23;20006;-69
2023/06/17 00:34:54;;;;;;;6.45;6.00;;;;;;;15.74;60.94;100760.72;6061133;23;20429;-69
2023/06/17 00:37:21;;;;;;;6.22;5.72;;;;;;;15.67;61.82;100770.03;6030755;23;20010;-69
2023/06/17 00:39:48;;;;;;;6.80;6.20;;;;;;;15.63;61.81;100771.19;6059707;23;20034;-69
2023/06/17 00:42:16;;;;;;;9.77;6.50;;;;;;;15.61;61.91;100768.66;6032203;23;20035;-69
2023/06/17 00:44:42;;;;;;;6.85;6.35;;;;;;;15.30;61.48;100725.91;6060004;23;20151;-69
2023/06/17 00:47:10;;;;;;;7.25;6.72;;;;;;;15.53;61.54;100771.03;6032074;23;20027;-70
2023/06/17 00:49:42;;;;;;;6.35;5.88;;;;;;;15.22;62.31;100722.97;6031787;23;20053;-70
2023/06/17 00:52:10;;;;;;;6.63;6.00;;;;;;;15.37;61.86;100752.75;6055980;23;20014;-70
2023/06/17 00:54:57;;;;;;;6.68;6.03;;;;;;;15.37;61.75;100771.28;6030658;23;20077;-70
2023/06/17 00:57:23;;;;;;;9.07;6.85;;;;;;;15.41;62.04;100771.91;6055640;23;20030;-71
2023/06/17 00:59:50;;;;;;;6.90;6.30;;;;;;;15.36;62.00;100766.94;6031107;23;20026;-70
2023/06/17 01:02:17;;;;;;;6.85;6.30;;;;;;;14.88;61.81;100698.09;6029012;23;20592;-70
2023/06/17 01:04:46;;;;;;;7.18;6.65;;;;;;;15.29;62.46;100781.53;6028915;23;20031;-70
2023/06/17 01:07:16;;;;;;;8.35;6.85;;;;;;;15.23;63.33;100774.88;6028878;23;20010;-70
2023/06/17 01:09:47;;;;;;;5.95;5.55;;;;;;;15.19;63.04;100775.22;6029546;23;20077;-70
2023/06/17 01:12:16;;;;;;;6.70;6.20;;;;;;;15.15;62.83;100769.28;6043370;23;20038;-70
2023/06/17 01:14:45;;;;;;;6.85;6.32;;;;;;;14.86;63.43;100742.28;6059625;23;20476;-70
2023/06/17 01:17:12;;;;;;;6.43;5.93;;;;;;;14.97;63.43;100768.78;6031426;23;20102;-70
2023/06/17 01:19:40;;;;;;;6.93;6.43;;;;;;;15.06;63.83;100769.97;6040912;23;20101;-70
2023/06/17 01:22:10;;;;;;;7.05;6.55;;;;;;;14.88;64.02;100767.63;6006278;23;20017;-70
2023/06/17 01:24:37;;;;;;;7.15;6.45;;;;;;;14.48;64.13;100701.66;6056837;23;20025;-71
2023/06/17 01:27:04;;;;;;;7.45;6.72;;;;;;;14.87;63.79;100767.72;6029592;23;20026;-71
2023/06/17 01:29:32;;;;;;;6.25;5.75;;;;;;;14.84;63.83;100770.59;6048969;23;20045;-71
2023/06/17 01:32:00;;;;;;;6.75;6.18;;;;;;;14.78;64.72;100771.03;6030473;23;20031;-70
2023/06/17 01:34:34;;;;;;;6.60;6.10;;;;;;;14.75;64.63;100774.69;6054589;23;20067;-71
2023/06/17 01:37:04;;;;;;;7.38;6.68;;;;;;;14.33;65.05;100714.13;6029961;23;20045;-70
2023/06/17 01:39:33;;;;;;;6.95;6.45;;;;;;;14.73;65.35;100790.69;6057301;23;20075;-71
2023/06/17 01:42:05;;;;;;;6.28;5.88;;;;;;;14.30;65.80;100718.75;6031574;23;20510;-70
2023/06/17 01:44:33;;;;;;;7.43;6.80;;;;;;;14.34;66.57;100750.13;6034706;23;20486;-70
2023/06/17 01:47:00;;;;;;;6.75;6.15;;;;;;;14.61;66.98;100793.28;6029725;23;20788;-70
2023/06/17 01:49:26;;;;;;;6.97;6.40;;;;;;;14.60;66.95;100796.91;6030743;23;20030;-70
2023/06/17 01:51:52;;;;;;;7.07;6.57;;;;;;;14.59;67.34;100803.13;6029509;23;20074;-70
2023/06/17 01:54:19;;;;;;;8.13;7.53;;;;;;;14.40;67.47;100772.63;6052989;23;20025;-70
2023/06/17 01:56:46;;;;;;;7.18;6.57;;;;;;;14.52;67.36;100797.38;6009843;23;20041;-69
2023/06/17 01:59:12;;;;;;;12.45;6.45;;;;;;;14.20;67.19;100749.38;6052435;23;20081;-70
2023/06/17 02:01:39;;;;;;;8.32;6.70;;;;;;;14.45;67.45;100798.72;6028674;23;20034;-69
2023/06/17 02:04:05;;;;;;;6.93;6.32;;;;;;;14.38;67.45;100789.53;6031805;23;20023;-69
2023/06/17 02:06:32;;;;;;;6.45;5.95;;;;;;;14.01;67.64;100742.69;6054436;23;20556;-69
2023/06/17 02:08:58;;;;;;;6.68;6.18;;;;;;;14.32;67.41;100804.00;6030409;23;20019;-69
2023/06/17 02:11:25;;;;;;;6.63;6.20;;;;;;;14.23;68.36;100804.59;6056724;23;20019;-70
2023/06/17 02:13:51;;;;;;;7.18;6.32;;;;;;;14.17;68.31;100813.75;6033339;23;20055;-70
2023/06/17 02:16:17;;;;;;;6.93;6.43;;;;;;;14.10;69.52;100813.31;6026781;23;20069;-70
2023/06/17 02:18:45;;;;;;;6.60;6.00;;;;;;;14.06;69.42;100803.91;6005934;23;20666;-69
2023/06/17 02:21:11;;;;;;;7.22;6.55;;;;;;;13.91;69.22;100789.06;6033435;23;20018;-70
2023/06/17 02:23:37;;;;;;;6.57;6.03;;;;;;;14.00;69.91;100812.22;6028480;23;20501;-69
2023/06/17 02:26:04;;;;;;;7.78;6.22;;;;;;;13.96;70.51;100821.28;6026580;23;20031;-69
2023/06/17 02:28:31;;;;;;;7.00;6.47;;;;;;;13.75;70.28;100791.84;6053950;23;20010;-69
2023/06/17 02:30:57;;;;;;;6.20;5.60;;;;;;;13.89;70.20;100820.84;6030508;23;20027;-69
2023/06/17 02:33:24;;;;;;;6.28;5.88;;;;;;;12.68;69.85;100623.69;6054130;23;20415;-69
2023/06/17 02:35:51;;;;;;;6.57;6.05;;;;;;;13.85;70.49;100827.25;6028510;23;20036;-69
2023/06/17 02:38:17;;;;;;;8.10;6.65;;;;;;;13.84;71.26;100838.75;6028932;23;20049;-69
2023/06/17 02:40:44;;;;;;;7.45;6.68;;;;;;;13.82;71.45;100840.63;6052317;23;20604;-69
2023/06/17 02:43:10;;;;;;;6.93;6.32;;;;;;;13.71;70.79;100816.72;6025718;23;20120;-69
2023/06/17 02:45:37;;;;;;;6.75;6.15;;;;;;;13.81;70.95;100838.94;6058664;23;20382;-70
2023/06/17 02:48:03;;;;;;;7.28;6.68;;;;;;;13.77;71.50;100843.56;6026595;23;25361;-70
2023/06/17 02:50:30;;;;;;;6.80;6.30;;;;;;;13.74;71.10;100843.75;6023470;23;20086;-70
2023/06/17 02:52:56;;;;;;;6.78;6.28;;;;;;;13.63;71.46;100838.31;6057097;23;20022;-70
2023/06/17 02:55:25;;;;;;;7.85;7.05;;;;;;;13.72;71.61;100852.72;6021869;23;20022;-69
2023/06/17 02:57:52;;;;;;;9.45;7.80;;;;;;;13.65;71.80;100852.25;5973263;23;20038;-69
2023/06/17 03:00:18;;;;;;;7.05;5.88;;;;;;;13.54;72.32;100878.44;6029198;23;20033;-70
2023/06/17 03:02:45;;;;;;;7.53;6.93;;;;;;;13.40;74.15;100859.97;5999917;23;20014;-69
2023/06/17 03:05:12;;;;;;;6.75;6.25;;;;;;;13.32;75.18;100874.47;6033153;23;20442;-72
2023/06/17 03:07:40;;;;;;;8.02;6.38;;;;;;;13.26;75.33;100884.50;6000297;23;20019;-70
2023/06/17 03:10:07;;;;;;;7.43;6.72;;;;;;;13.20;75.87;100879.63;6029494;23;20558;-70
2023/06/17 03:12:33;;;;;;;8.27;6.65;;;;;;;13.06;75.37;100877.81;5999924;23;20090;-70
2023/06/17 03:15:00;;;;;;;7.05;6.55;;;;;;;13.15;76.52;100877.25;6029937;23;20023;-70
2023/06/17 03:17:27;;;;;;;6.63;6.13;;;;;;;12.55;76.82;100789.47;6000521;23;20019;-70
2023/06/17 03:19:53;;;;;;;6.05;5.65;;;;;;;13.22;76.85;100898.81;6025321;23;20038;-70
2023/06/17 03:22:20;;;;;;;6.50;6.03;;;;;;;12.56;76.77;100790.31;5998047;23;20023;-71
2023/06/17 03:24:46;;;;;;;6.57;6.03;;;;;;;13.33;76.97;100904.31;6026788;23;20767;-70
2023/06/17 03:27:13;;;;;;;6.20;5.75;;;;;;;13.37;76.91;100908.47;6000410;23;20431;-70
2023/06/17 03:29:39;;;;;;;6.47;6.07;;;;;;;13.41;76.54;100904.72;6007823;23;20030;-68
2023/06/17 03:32:06;;;;;;;6.53;6.03;;;;;;;13.38;76.41;100894.34;6028747;23;20029;-67
2023/06/17 03:34:33;;;;;;;7.35;6.75;;;;;;;13.46;76.23;100894.72;6000704;23;20090;-69
2023/06/17 03:36:59;;;;;;;6.43;5.93;;;;;;;13.06;76.48;100833.00;6026366;23;20025;-68
2023/06/17 03:39:25;;;;;;;6.68;6.07;;;;;;;13.54;76.06;100908.28;6000306;23;20019;-67
2023/06/17 03:41:52;;;;;;;6.80;6.20;;;;;;;13.31;76.34;100858.75;6026013;23;20182;-67
2023/06/17 03:44:18;;;;;;;6.40;6.00;;;;;;;13.62;76.54;100914.88;5999941;23;20368;-67
2023/06/17 03:46:47;;;;;;;6.80;6.30;;;;;;;13.67;76.64;100920.69;6025056;23;20026;-69
2023/06/17 03:49:13;;;;;;;7.20;6.43;;;;;;;13.75;76.35;100924.59;5999383;23;20541;-69
2023/06/17 03:51:40;;;;;;;8.38;6.47;;;;;;;13.84;76.27;100928.44;6026611;23;20014;-70
2023/06/17 03:54:06;;;;;;;6.70;6.10;;;;;;;12.89;75.89;100760.25;6000173;23;20446;-67
2023/06/17 03:56:33;;;;;;;6.47;5.90;;;;;;;13.87;76.39;100925.63;6003795;23;20019;-67
2023/06/17 03:58:59;;;;;;;6.40;5.93;;;;;;;13.60;76.67;100883.31;6027231;23;20031;-67
2023/06/17 04:01:25;;;;;;;6.65;6.15;;;;;;;14.05;75.87;100941.22;6054725;23;20086;-69
2023/06/17 04:03:52;;;;;;;7.05;6.55;;;;;;;14.13;75.73;100937.16;6023822;23;20027;-69
2023/06/17 04:06:18;;;;;;;6.68;6.13;;;;;;;14.18;74.94;100936.88;6053685;23;20587;-70
2023/06/17 04:08:46;;;;;;;7.15;6.57;;;;;;;14.29;74.73;100937.03;6025694;23;20042;-69
2023/06/17 04:11:14;;;;;;;7.03;6.43;;;;;;;14.56;74.00;100910.66;6052168;23;20272;-70
2023/06/17 04:13:41;;;;;;;7.20;6.60;;;;;;;15.78;71.56;100973.06;6027128;23;20041;-68
2023/06/17 04:16:07;;;;;;;6.88;6.28;;;;;;;16.54;69.18;100962.28;6036818;23;20492;-68
2023/06/17 04:18:33;;;;;;;7.05;6.55;;;;;;;16.73;66.45;100866.34;6054041;23;20493;-70
2023/06/17 04:21:00;;;;;;;9.77;7.20;;;;;;;17.61;63.71;100887.97;6027374;23;20743;-70
2023/06/17 04:23:29;;;;;;;6.82;6.22;;;;;;;18.22;61.83;100908.81;6054478;23;20033;-70
2023/06/17 04:25:56;;;;;;;10.00;7.13;;;;;;;18.43;60.60;100895.59;6027603;23;20007;-70
2023/06/17 04:28:23;;;;;;;7.63;6.93;;;;;;;18.67;59.74;100893.56;6022412;23;20046;-68
2023/06/17 04:30:51;;;;;;;7.50;6.82;;;;;;;19.13;58.70;100887.03;6028872;23;20033;-68
2023/06/17 04:33:17;;;;;;;7.53;6.93;;;;;;;19.59;57.61;100873.41;6055972;23;20030;-70
2023/06/17 04:35:44;;;;;;;7.45;6.78;;;;;;;19.97;56.75;100866.56;6026700;23;20027;-70
2023/06/17 04:38:11;;;;;;;7.68;7.07;;;;;;;20.17;55.29;100812.31;6027433;23;20086;-68
2023/06/17 04:40:37;;;;;;;7.68;7.00;;;;;;;20.68;53.94;100819.16;6026051;23;20048;-70
2023/06/17 04:43:04;;;;;;;7.10;6.60;;;;;;;20.85;53.33;100787.44;6055715;23;20011;-69
2023/06/17 04:45:30;;;;;;;11.60;7.50;;;;;;;21.35;52.33;100805.78;6026516;23;20509;-68
2023/06/17 04:47:57;;;;;;;7.20;6.57;;;;;;;21.65;51.69;100779.75;6054230;23;20046;-67
2023/06/17 04:50:23;;;;;;;7.97;7.35;;;;;;;22.01;51.00;100779.81;6026484;23;20086;-69
2023/06/17 04:52:53;;;;;;;7.22;6.65;;;;;;;22.33;49.67;100759.72;6052745;23;20169;-70
2023/06/17 04:55:21;;;;;;;7.65;7.05;;;;;;;22.59;48.66;100728.50;6027909;23;20077;-69
2023/06/17 04:57:48;;;;;;;8.45;6.93;;;;;;;22.63;48.44;100703.13;6050176;23;20671;-68
2023/06/17 05:00:16;;;;;;;7.75;7.13;;;;;;;22.96;48.50;100708.63;6030801;23;20034;-68
2023/06/17 05:02:46;;;;;;;7.95;7.35;;;;;;;23.19;48.00;100738.34;6028163;23;20031;-70
2023/06/17 05:05:12;;;;;;;8.30;7.32;;;;;;;23.32;47.83;100683.53;6031445;23;20038;-70
2023/06/17 05:07:38;;;;;;;8.20;7.53;;;;;;;23.29;46.05;100623.94;6055861;23;20038;-68
2023/06/17 05:10:05;;;;;;;8.15;7.55;;;;;;;23.55;46.44;100638.19;6030755;23;20609;-68
2023/06/17 05:12:32;;;;;;;7.55;7.05;;;;;;;23.93;45.85;100671.53;6034752;23;20032;-70
2023/06/17 05:14:58;;;;;;;7.25;6.75;;;;;;;24.36;45.28;100707.06;6060737;23;20600;-68
2023/06/17 05:17:24;;;;;;;7.53;6.93;;;;;;;24.57;44.25;100685.06;6030540;23;20022;-69
2023/06/17 05:19:53;;;;;;;7.20;6.68;;;;;;;24.74;44.07;100674.31;6052793;23;20183;-69
2023/06/17 05:22:20;;;;;;;7.70;7.10;;;;;;;24.67;43.85;100648.13;6028778;23;20002;-69
2023/06/17 05:24:46;;;;;;;7.65;6.93;;;;;;;25.08;42.81;100707.03;6033421;23;20030;-70
2023/06/17 05:27:13;;;;;;;9.35;7.03;;;;;;;25.25;43.23;100701.59;6030229;23;20026;-70
2023/06/17 05:29:39;;;;;;;7.85;7.28;;;;;;;25.64;42.30;100711.47;6029755;23;20038;-70
2023/06/17 05:32:06;;;;;;;7.50;6.90;;;;;;;25.02;42.46;100653.19;6031892;23;20007;-68
2023/06/17 05:34:32;;;;;;;7.85;7.25;;;;;;;25.44;42.91;100719.16;6028288;23;20021;-68
2023/06/17 05:36:59;;;;;;;7.10;6.60;;;;;;;25.57;42.34;100734.69;6031065;23;20036;-70
2023/06/17 05:39:25;;;;;;;8.05;7.22;;;;;;;25.66;41.87;100739.81;6055342;23;20029;-70
2023/06/17 05:41:52;;;;;;;7.68;7.18;;;;;;;25.80;42.30;100757.03;6029239;23;20662;-69
2023/06/17 05:44:18;;;;;;;7.68;7.07;;;;;;;26.06;41.54;100756.72;6030239;23;20530;-70
2023/06/17 05:46:44;;;;;;;7.85;7.25;;;;;;;25.92;41.79;100756.66;6037289;23;20495;-70
2023/06/17 05:49:11;;;;;;;9.27;7.93;;;;;;;25.81;41.38;100721.06;6029172;23;20046;-67
2023/06/17 05:51:37;;;;;;;8.95;7.80;;;;;;;25.18;41.09;100644.22;6058392;23;20018;-70
2023/06/17 05:54:04;;;;;;;8.02;7.43;;;;;;;25.67;41.84;100778.28;6033128;23;20026;-68
2023/06/17 05:56:30;;;;;;;8.13;7.45;;;;;;;26.18;41.02;100797.47;6056975;23;20616;-68
2023/06/17 05:58:56;;;;;;;8.43;7.82;;;;;;;25.92;39.85;100687.59;6028920;23;20044;-68
2023/06/17 06:01:23;;;;;;;8.05;7.45;;;;;;;25.95;40.29;100714.09;6055321;23;20032;-70
2023/06/17 06:03:49;;;;;;;7.78;7.18;;;;;;;25.75;40.20;100697.59;6027393;23;20581;-70
2023/06/17 06:06:16;;;;;;;8.18;7.60;;;;;;;25.84;39.65;100718.03;6032068;23;20087;-68
2023/06/17 06:08:44;;;;;;;7.90;7.35;;;;;;;26.31;39.44;100745.75;6029442;23;20027;-68
2023/06/17 06:11:11;;;;;;;8.27;7.57;;;;;;;26.08;38.94;100686.63;6026955;23;20169;-69
2023/06/17 06:13:37;;;;;;;7.80;7.20;;;;;;;26.50;38.69;100730.09;6030963;23;20010;-70
2023/06/17 06:16:04;;;;;;;8.07;7.43;;;;;;;26.90;38.36;100768.38;6056942;23;20553;-70
2023/06/17 06:18:30;;;;;;;10.23;7.30;;;;;;;26.82;38.81;100766.63;6028567;23;20015;-70
2023/06/17 06:20:57;;;;;;;7.90;7.22;;;;;;;25.80;39.95;100695.22;6031446;23;20026;-68
2023/06/17 06:23:23;;;;;;;9.00;8.30;;;;;;;26.06;39.78;100755.88;6029728;23;20085;-68
2023/06/17 06:25:50;;;;;;;8.82;7.93;;;;;;;25.56;39.81;100690.00;6057749;23;20169;-69
2023/06/17 06:28:16;;;;;;;8.13;7.53;;;;;;;25.15;40.70;100720.59;6028575;23;20524;-68
2023/06/17 06:30:43;;;;;;;8.75;7.85;;;;;;;25.12;40.64;100720.09;6028216;23;20037;-68
2023/06/17 06:33:11;;;;;;;8.88;8.02;;;;;;;24.41;41.72;100685.91;6029189;23;20037;-67
2023/06/17 06:35:38;;;;;;;9.25;8.45;;;;;;;23.98;44.33;100775.63;6029521;23;20033;-69
2023/06/17 06:38:07;;;;;;;8.50;7.85;;;;;;;23.92;45.54;100836.06;6039162;23;20023;-68
2023/06/17 06:40:33;;;;;;;11.23;8.63;;;;;;;23.58;45.92;100795.94;6054856;23;20450;-67
2023/06/17 06:43:00;;;;;;;9.40;8.43;;;;;;;23.43;45.81;100817.13;6026945;23;20609;-68
2023/06/17 06:45:26;;;;;;;8.63;7.93;;;;;;;22.99;46.66;100795.78;6056395;23;20030;-68
2023/06/17 06:47:52;;;;;;;8.88;8.10;;;;;;;23.14;45.96;100793.41;6028378;23;20033;-72
2023/06/17 06:50:19;;;;;;;10.27;9.23;;;;;;;23.11;46.12;100815.94;6057085;23;20026;-69
2023/06/17 06:52:46;;;;;;;8.85;8.15;;;;;;;22.99;46.46;100798.47;6030946;23;20363;-67
2023/06/17 06:55:12;;;;;;;11.00;8.18;;;;;;;23.04;46.34;100836.34;6060025;23;20089;-67
2023/06/17 06:57:39;;;;;;;9.07;8.18;;;;;;;23.04;47.27;100853.25;6029496;23;20035;-68
2023/06/17 07:00:09;;;;;;;9.43;8.63;;;;;;;23.03;45.94;100797.19;6024117;23;20046;-67
2023/06/17 07:02:36;;;;;;;11.68;8.43;;;;;;;22.82;44.60;100693.19;6040160;23;20037;-68
2023/06/17 07:05:04;;;;;;;8.68;7.97;;;;;;;23.14;45.06;100767.47;6034059;23;20018;-69
2023/06/17 07:07:30;;;;;;;8.60;7.90;;;;;;;23.18;44.69;100763.47;6027773;23;20081;-67
2023/06/17 07:09:57;;;;;;;9.55;8.30;;;;;;;23.03;44.03;100700.81;6056333;23;20072;-69
2023/06/17 07:12:23;;;;;;;7.97;7.28;;;;;;;23.10;43.75;100681.28;6028242;23;20478;-69
2023/06/17 07:14:49;;;;;;;7.78;7.18;;;;;;;23.31;43.46;100725.50;6055614;23;20026;-68
2023/06/17 07:17:16;;;;;;;8.20;7.40;;;;;;;23.13;42.45;100636.44;6028255;23;20029;-70
2023/06/17 07:19:42;;;;;;;9.00;8.10;;;;;;;23.06;44.73;100748.69;6057882;23;20026;-69
2023/06/17 07:22:09;;;;;;;9.38;8.20;;;;;;;23.07;45.40;100772.63;6024076;23;20415;-69
2023/06/17 07:24:36;;;;;;;9.15;7.93;;;;;;;23.11;43.49;100719.59;6025384;23;20064;-67
2023/06/17 07:27:03;;;;;;;7.80;7.25;;;;;;;22.84;44.16;100692.00;6034476;23;20043;-67
2023/06/17 07:29:30;;;;;;;8.70;8.00;;;;;;;23.07;43.80;100713.72;6029564;23;20015;-68
2023/06/17 07:31:56;;;;;;;7.82;7.15;;;;;;;23.11;43.27;100703.53;6024743;23;20031;-70
2023/06/17 07:34:22;;;;;;;8.10;7.50;;;;;;;23.37;42.94;100714.16;6057161;23;20609;-69
2023/06/17 07:36:52;;;;;;;8.93;8.02;;;;;;;23.26;41.71;100639.50;6027731;23;20030;-67
2023/06/17 07:39:20;;;;;;;10.30;8.20;;;;;;;23.04;41.53;100596.28;6053642;23;20022;-70
2023/06/17 07:41:46;;;;;;;7.75;7.15;;;;;;;23.00;42.23;100636.88;6026264;23;20051;-68
2023/06/17 07:44:13;;;;;;;8.95;8.00;;;;;;;23.48;42.15;100694.25;6023814;23;20599;-68
2023/06/17 07:46:39;;;;;;;7.53;6.95;;;;;;;23.61;42.51;100736.66;6054085;23;20089;-68
2023/06/17 07:49:05;;;;;;;8.05;7.35;;;;;;;23.79;42.31;100745.41;6027864;23;20027;-68
2023/06/17 07:51:32;;;;;;;8.13;7.32;;;;;;;23.82;41.50;100675.41;6051686;23;20027;-68
2023/06/17 07:53:58;;;;;;;7.97;7.40;;;;;;;23.89;40.27;100660.34;6029023;23;20047;-68
2023/06/17 07:56:27;;;;;;;7.93;7.43;;;;;;;23.63;40.98;100639.03;6053716;23;20382;-69
2023/06/17 07:58:53;;;;;;;7.95;7.35;;;;;;;24.12;40.35;100678.41;6003781;23;20090;-68
2023/06/17 08:01:20;;;;;;;8.32;7.20;;;;;;;23.99;39.82;100613.75;6050930;23;20021;-68
2023/06/17 08:03:47;;;;;;;7.72;7.13;;;;;;;24.38;39.46;100678.22;6026976;23;20030;-68
2023/06/17 08:06:13;;;;;;;8.40;7.25;;;;;;;24.56;39.73;100730.88;6055646;23;20548;-68
2023/06/17 08:08:41;;;;;;;7.93;7.18;;;;;;;24.38;40.53;100710.41;6022031;23;20031;-70
2023/06/17 08:11:07;;;;;;;8.20;7.47;;;;;;;24.86;39.07;100723.91;6055440;23;20094;-68
2023/06/17 08:13:34;;;;;;;7.40;6.80;;;;;;;25.14;39.31;100774.47;6027120;23;20031;-70
2023/06/17 08:16:01;;;;;;;8.02;7.30;;;;;;;25.19;39.87;100788.22;6053190;23;20031;-70
2023/06/17 08:18:27;;;;;;;7.78;7.07;;;;;;;24.95;39.15;100676.38;6024596;23;20076;-68
2023/06/17 08:20:54;;;;;;;7.25;6.75;;;;;;;25.15;38.15;100644.56;6022600;23;20687;-70
2023/06/17 08:23:20;;;;;;;7.30;6.70;;;;;;;25.04;38.45;100661.91;6025311;23;20049;-68
2023/06/17 08:25:49;;;;;;;7.70;7.00;;;;;;;25.20;38.02;100671.75;6026786;23;20031;-68
2023/06/17 08:28:15;;;;;;;7.82;7.18;;;;;;;24.75;39.01;100622.28;6026432;23;20010;-69
2023/06/17 08:30:42;;;;;;;7.65;7.10;;;;;;;24.95;38.40;100668.31;6055222;23;20418;-70
2023/06/17 08:33:10;;;;;;;7.65;6.93;;;;;;;25.17;36.47;100578.06;6027772;23;20035;-67
2023/06/17 08:35:37;;;;;;;7.57;7.07;;;;;;;25.49;36.03;100611.94;6057092;23;20022;-69
2023/06/17 08:38:03;;;;;;;6.97;6.47;;;;;;;25.25;34.88;100489.41;6006567;23;20653;-67
2023/06/17 08:40:32;;;;;;;7.50;7.00;;;;;;;25.62;34.89;100546.88;6031738;23;20019;-67
2023/06/17 08:43:01;;;;;;;6.78;6.35;;;;;;;24.63;33.83;100364.22;6031423;23;20030;-66
2023/06/17 08:45:29;;;;;;;9.05;6.75;;;;;;;25.14;33.16;100402.03;6059048;23;20101;-69
2023/06/17 08:47:57;;;;;;;7.57;6.78;;;;;;;25.26;33.97;100516.09;6028806;23;20575;-68
2023/06/17 08:50:28;;;;;;;7.60;6.65;;;;;;;25.43;33.43;100519.47;6058668;23;20018;-67
2023/06/17 08:52:55;;;;;;;6.75;6.25;;;;;;;25.63;33.62;100545.84;6031572;23;20031;-67
2023/06/17 08:55:21;;;;;;;7.03;6.43;;;;;;;25.10;33.54;100481.28;6061877;23;20026;-70
2023/06/17 08:57:51;;;;;;;7.38;6.82;;;;;;;25.59;34.54;100591.03;6026828;23;20035;-67
2023/06/17 09:00:17;;;;;;;6.85;6.38;;;;;;;25.95;34.76;100646.03;6056116;23;20097;-67
2023/06/17 09:02:45;;;;;;;7.55;6.95;;;;;;;26.23;34.55;100689.31;6028271;23;20035;-69
2023/06/17 09:05:12;;;;;;;7.07;6.57;;;;;;;26.23;34.24;100640.91;6030171;23;20644;-67
2023/06/17 09:07:40;;;;;;;7.45;6.82;;;;;;;26.25;34.17;100642.38;6028254;23;20434;-69
2023/06/17 09:10:09;;;;;;;7.18;6.68;;;;;;;26.37;34.40;100652.69;6029770;23;20046;-67
2023/06/17 09:12:37;;;;;;;7.72;7.13;;;;;;;26.35;34.03;100623.28;6031882;23;20031;-67
2023/06/17 09:15:06;;;;;;;7.30;6.80;;;;;;;26.38;33.76;100611.28;6057295;23;20077;-67
2023/06/17 09:17:33;;;;;;;6.93;6.50;;;;;;;26.27;33.58;100599.97;6030212;23;20015;-68
2023/06/17 09:20:13;;;;;;;7.78;7.07;;;;;;;26.52;33.50;100620.38;6057215;23;20034;-69
2023/06/17 09:22:49;;;;;;;7.20;6.60;;;;;;;26.34;33.34;100594.72;6032061;23;20034;-67
2023/06/17 09:25:18;;;;;;;6.97;6.50;;;;;;;26.74;32.55;100611.41;6054641;23;20030;-67
2023/06/17 09:27:51;;;;;;;7.65;6.95;;;;;;;26.88;34.06;100711.19;6028565;23;20031;-67
2023/06/17 09:30:22;;;;;;;7.72;6.97;;;;;;;26.90;32.25;100575.31;6025684;23;20047;-67
2023/06/17 09:32:52;;;;;;;6.88;6.47;;;;;;;26.91;32.46;100603.09;6057637;23;20033;-67
2023/06/17 09:35:18;;;;;;;7.40;6.80;;;;;;;26.15;31.65;100452.69;6028423;23;20027;-67
2023/06/17 09:37:49;;;;;;;6.90;6.40;;;;;;;26.45;32.06;100544.97;6058889;23;20050;-67
2023/06/17 09:40:31;;;;;;;7.47;6.97;;;;;;;26.36;31.32;100481.50;6004262;23;20085;-68
2023/06/17 09:43:02;;;;;;;7.40;6.80;;;;;;;26.35;31.13;100495.97;6057974;23;20046;-68
2023/06/17 09:45:54;;;;;;;6.80;6.30;;;;;;;26.60;31.36;100543.13;6028056;23;20703;-69
2023/06/17 09:48:24;;;;;;;7.30;6.60;;;;;;;26.43;31.36;100502.06;6054594;23;20033;-67
2023/06/17 09:50:56;;;;;;;6.95;6.45;;;;;;;26.35;32.58;100571.31;6028900;23;20655;-68
2023/06/17 09:53:27;;;;;;;6.88;6.43;;;;;;;26.84;32.04;100651.47;6028085;23;20022;-68
2023/06/17 09:55:57;;;;;;;6.28;5.90;;;;;;;27.06;31.25;100607.44;6027726;23;20031;-67
2023/06/17 09:58:30;;;;;;;7.13;6.63;;;;;;;26.89;31.45;100552.13;6055237;23;20050;-68
2023/06/17 10:01:00;;;;;;;6.90;6.40;;;;;;;26.60;31.58;100556.56;6026352;23;20096;-67
2023/06/17 10:03:27;;;;;;;6.53;6.13;;;;;;;27.06;31.66;100638.91;6054159;23;20476;-67
2023/06/17 10:06:05;;;;;;;6.80;6.40;;;;;;;27.45;32.25;100730.16;6027832;23;20029;-68
2023/06/17 10:08:35;;;;;;;6.80;6.28;;;;;;;27.55;30.95;100632.00;6027518;23;20031;-69
2023/06/17 10:11:02;;;;;;;6.90;6.20;;;;;;;27.74;31.20;100687.94;6029943;23;20025;-66
2023/06/17 10:13:35;;;;;;;7.20;6.70;;;;;;;27.05;31.25;100540.28;6035977;23;20051;-67
2023/06/17 10:16:04;;;;;;;6.93;6.43;;;;;;;26.51;31.78;100517.28;6059054;23;20030;-66
2023/06/17 10:18:34;;;;;;;6.85;6.35;;;;;;;26.71;32.48;100602.88;6028323;23;20018;-68
2023/06/17 10:21:03;;;;;;;7.25;6.70;;;;;;;26.91;32.88;100648.88;6052528;23;20033;-67
2023/06/17 10:23:32;;;;;;;7.10;6.60;;;;;;;26.60;31.42;100508.13;6030206;23;20098;-70
2023/06/17 10:25:58;;;;;;;6.75;6.32;;;;;;;26.94;31.77;100613.47;6057453;23;20041;-69
2023/06/17 10:28:41;;;;;;;6.95;6.45;;;;;;;27.22;31.32;100618.97;6027564;23;20036;-68
2023/06/17 10:31:18;;;;;;;;;;;;;;;27.31;31.88;100636.72;6029857;23;20653;-66
2023/06/17 10:33:48;;;;;;;7.07;6.47;;;;;;;27.06;31.09;100556.25;6025923;23;19958;-67
2023/06/17 10:36:15;;;;;;;6.60;6.20;;;;;;;27.97;31.03;100714.75;6011731;23;20035;-67
2023/06/17 10:39:11;;;;;;;7.50;6.97;;;;;;;28.15;29.83;100660.31;6057854;23;20030;-67
2023/06/17 10:41:37;;;;;;;7.35;6.75;;;;;;;28.55;31.58;100794.78;6001806;23;20023;-67
2023/06/17 10:44:26;;;;;;;7.00;6.50;;;;;;;28.76;30.64;100747.97;6024430;23;20043;-67
2023/06/17 10:46:59;;;;;;;7.03;6.50;;;;;;;28.52;29.38;100628.59;6003323;23;20023;-67
2023/06/17 10:49:25;;;;;;;7.38;6.78;;;;;;;28.34;29.24;100577.78;6028020;23;20826;-67
2023/06/17 10:51:57;;;;;;;7.25;6.68;;;;;;;27.93;29.42;100537.31;6055522;23;20437;-69
2023/06/17 10:54:30;;;;;;;7.47;6.72;;;;;;;27.12;29.05;100386.78;6006188;23;20069;-66
2023/06/17 10:56:57;;;;;;;7.10;6.50;;;;;;;26.20;30.00;100331.91;6026493;23;20030;-66
2023/06/17 10:59:28;;;;;;;7.05;6.38;;;;;;;27.26;29.94;100504.41;6055951;23;20038;-71
2023/06/17 11:02:03;;;;;;;7.13;6.40;;;;;;;27.36;30.60;100577.72;6027284;23;20034;-68
2023/06/17 11:04:31;;;;;;;7.03;6.53;;;;;;;27.13;29.23;100432.38;6052523;23;20076;-68
2023/06/17 11:06:59;;;;;;;7.35;6.65;;;;;;;27.80;30.66;100660.22;6027473;23;20011;-69
2023/06/17 11:09:27;;;;;;;6.72;6.10;;;;;;;25.76;28.08;100115.97;6051836;23;20046;-68
2023/06/17 11:11:54;;;;;;;7.07;6.47;;;;;;;28.05;28.72;100565.41;6021936;23;20473;-66
2023/06/17 11:14:21;;;;;;;6.75;6.28;;;;;;;27.97;27.15;100420.72;6061481;23;20046;-68
2023/06/17 11:16:50;;;;;;;7.10;6.60;;;;;;;27.35;27.37;100371.22;6029107;23;20021;-69
2023/06/17 11:19:17;;;;;;;7.18;6.68;;;;;;;27.39;27.78;100423.69;6051428;23;20026;-70
2023/06/17 11:21:43;;;;;;;6.35;5.95;;;;;;;27.67;27.55;100455.19;6026958;23;20019;-70
2023/06/17 11:24:11;;;;;;;6.65;6.20;;;;;;;27.75;28.19;100487.38;6052162;23;20093;-65
2023/06/17 11:26:37;;;;;;;7.78;6.93;;;;;;;28.09;29.10;100593.66;6027019;23;20029;-68